sensor_id;sensor_type;location;lat;lon;timestamp;P1;durP1;ratioP1;P2;durP2;ratioP2
11835;SDS011;5977;51.972;7.640;2023-12-29T00:00:05;147.63;;;48.03;;
11835;SDS011;5977;51.972;7.640;2023-12-29T00:02:35;147.50;;;48.00;;
11835;SDS011;5977;51.972;7.640;2023-12-29T00:05:04;147.80;;;48.07;;
11835;SDS011;5977;51.972;7.640;2023-12-29T00:07:32;148.23;;;48.27;;
11835;SDS011;5977;51.972;7.640;2023-12-29T00:10:00;147.87;;;48.10;;
11835;SDS011;5977;51.972;7.640;2023-12-29T00:12:28;148.00;;;48.20;;
11835;SDS011;5977;51.972;7.640;2023-12-29T00:14:57;148.37;;;48.30;;
11835;SDS011;5977;51.972;7.640;2023-12-29T00:17:25;147.53;;;48.07;;
11835;SDS011;5977;51.972;7.640;2023-12-29T00:19:53;147.57;;;48.07;;
11835;SDS011;5977;51.972;7.640;2023-12-29T00:22:21;147.57;;;48.03;;
11835;SDS011;5977;51.972;7.640;2023-12-29T00:24:50;147.53;;;47.93;;
11835;SDS011;5977;51.972;7.640;2023-12-29T00:27:17;147.07;;;47.77;;
11835;SDS011;5977;51.972;7.640;2023-12-29T00:29:46;147.77;;;48.03;;
11835;SDS011;5977;51.972;7.640;2023-12-29T00:32:16;147.43;;;48.03;;
11835;SDS011;5977;51.972;7.640;2023-12-29T00:34:44;148.03;;;48.27;;
11835;SDS011;5977;51.972;7.640;2023-12-29T00:37:12;148.27;;;48.23;;
11835;SDS011;5977;51.972;7.640;2023-12-29T00:39:40;148.00;;;48.37;;
11835;SDS011;5977;51.972;7.640;2023-12-29T00:42:10;148.10;;;48.30;;
11835;SDS011;5977;51.972;7.640;2023-12-29T00:44:38;147.67;;;48.03;;
11835;SDS011;5977;51.972;7.640;2023-12-29T00:47:06;147.93;;;48.20;;
11835;SDS011;5977;51.972;7.640;2023-12-29T00:49:37;148.07;;;48.17;;
11835;SDS011;5977;51.972;7.640;2023-12-29T00:52:06;147.97;;;48.17;;
11835;SDS011;5977;51.972;7.640;2023-12-29T00:54:34;148.17;;;48.13;;
11835;SDS011;5977;51.972;7.640;2023-12-29T00:57:02;148.27;;;48.33;;
11835;SDS011;5977;51.972;7.640;2023-12-29T00:59:30;148.30;;;48.27;;
11835;SDS011;5977;51.972;7.640;2023-12-29T01:01:58;148.07;;;48.20;;
11835;SDS011;5977;51.972;7.640;2023-12-29T01:04:27;147.93;;;48.10;;
11835;SDS011;5977;51.972;7.640;2023-12-29T01:06:56;147.87;;;48.20;;
11835;SDS011;5977;51.972;7.640;2023-12-29T01:09:25;147.70;;;48.03;;
11835;SDS011;5977;51.972;7.640;2023-12-29T01:11:53;148.40;;;48.27;;
11835;SDS011;5977;51.972;7.640;2023-12-29T01:14:21;148.13;;;48.20;;
11835;SDS011;5977;51.972;7.640;2023-12-29T01:16:49;148.13;;;48.23;;
11835;SDS011;5977;51.972;7.640;2023-12-29T01:19:17;147.70;;;48.10;;
11835;SDS011;5977;51.972;7.640;2023-12-29T01:21:46;148.50;;;48.37;;
11835;SDS011;5977;51.972;7.640;2023-12-29T01:24:15;147.57;;;48.03;;
11835;SDS011;5977;51.972;7.640;2023-12-29T01:26:51;147.27;;;47.97;;
11835;SDS011;5977;51.972;7.640;2023-12-29T01:29:19;148.43;;;48.43;;
11835;SDS011;5977;51.972;7.640;2023-12-29T01:31:47;147.73;;;47.93;;
11835;SDS011;5977;51.972;7.640;2023-12-29T01:34:15;147.63;;;48.13;;
11835;SDS011;5977;51.972;7.640;2023-12-29T01:36:43;148.17;;;48.17;;
11835;SDS011;5977;51.972;7.640;2023-12-29T01:39:11;148.50;;;48.30;;
11835;SDS011;5977;51.972;7.640;2023-12-29T01:41:40;147.83;;;48.07;;
11835;SDS011;5977;51.972;7.640;2023-12-29T01:44:18;148.63;;;48.40;;
11835;SDS011;5977;51.972;7.640;2023-12-29T01:46:48;147.37;;;47.87;;
11835;SDS011;5977;51.972;7.640;2023-12-29T01:49:17;147.73;;;48.10;;
11835;SDS011;5977;51.972;7.640;2023-12-29T01:51:48;148.27;;;48.20;;
11835;SDS011;5977;51.972;7.640;2023-12-29T01:54:18;147.83;;;48.03;;
11835;SDS011;5977;51.972;7.640;2023-12-29T01:56:49;147.30;;;47.77;;
11835;SDS011;5977;51.972;7.640;2023-12-29T01:59:20;148.00;;;48.27;;
11835;SDS011;5977;51.972;7.640;2023-12-29T02:01:53;147.97;;;48.30;;
11835;SDS011;5977;51.972;7.640;2023-12-29T02:04:22;147.53;;;47.90;;
11835;SDS011;5977;51.972;7.640;2023-12-29T02:06:52;148.80;;;48.60;;
11835;SDS011;5977;51.972;7.640;2023-12-29T02:09:20;147.63;;;47.97;;
11835;SDS011;5977;51.972;7.640;2023-12-29T02:11:50;147.57;;;48.07;;
11835;SDS011;5977;51.972;7.640;2023-12-29T02:14:18;147.93;;;48.17;;
11835;SDS011;5977;51.972;7.640;2023-12-29T02:16:50;147.00;;;47.93;;
11835;SDS011;5977;51.972;7.640;2023-12-29T02:19:34;147.50;;;48.00;;
11835;SDS011;5977;51.972;7.640;2023-12-29T02:22:06;147.23;;;47.83;;
11835;SDS011;5977;51.972;7.640;2023-12-29T02:24:35;147.10;;;47.80;;
11835;SDS011;5977;51.972;7.640;2023-12-29T02:27:07;147.03;;;47.83;;
11835;SDS011;5977;51.972;7.640;2023-12-29T02:29:43;146.83;;;47.60;;
11835;SDS011;5977;51.972;7.640;2023-12-29T02:32:16;146.97;;;47.77;;
11835;SDS011;5977;51.972;7.640;2023-12-29T02:34:45;147.10;;;47.90;;
11835;SDS011;5977;51.972;7.640;2023-12-29T02:37:17;147.30;;;47.87;;
11835;SDS011;5977;51.972;7.640;2023-12-29T02:39:46;147.27;;;47.90;;
11835;SDS011;5977;51.972;7.640;2023-12-29T02:42:15;147.23;;;47.80;;
11835;SDS011;5977;51.972;7.640;2023-12-29T02:44:43;147.03;;;47.70;;
11835;SDS011;5977;51.972;7.640;2023-12-29T02:47:12;146.30;;;47.57;;
11835;SDS011;5977;51.972;7.640;2023-12-29T02:49:40;147.20;;;47.87;;
11835;SDS011;5977;51.972;7.640;2023-12-29T02:52:08;146.67;;;47.67;;
11835;SDS011;5977;51.972;7.640;2023-12-29T02:54:36;147.07;;;47.90;;
11835;SDS011;5977;51.972;7.640;2023-12-29T02:57:04;147.40;;;47.97;;
11835;SDS011;5977;51.972;7.640;2023-12-29T02:59:33;146.40;;;47.60;;
11835;SDS011;5977;51.972;7.640;2023-12-29T03:02:01;146.83;;;47.73;;
11835;SDS011;5977;51.972;7.640;2023-12-29T03:04:29;146.73;;;47.70;;
11835;SDS011;5977;51.972;7.640;2023-12-29T03:06:57;147.20;;;47.97;;
11835;SDS011;5977;51.972;7.640;2023-12-29T03:09:25;147.33;;;47.87;;
11835;SDS011;5977;51.972;7.640;2023-12-29T03:11:53;146.53;;;47.67;;
11835;SDS011;5977;51.972;7.640;2023-12-29T03:14:20;146.77;;;47.83;;
11835;SDS011;5977;51.972;7.640;2023-12-29T03:16:50;146.93;;;47.77;;
11835;SDS011;5977;51.972;7.640;2023-12-29T03:19:18;147.40;;;48.00;;
11835;SDS011;5977;51.972;7.640;2023-12-29T03:21:46;147.23;;;47.97;;
11835;SDS011;5977;51.972;7.640;2023-12-29T03:24:13;146.93;;;47.80;;
11835;SDS011;5977;51.972;7.640;2023-12-29T03:26:41;147.90;;;48.10;;
11835;SDS011;5977;51.972;7.640;2023-12-29T03:29:10;147.20;;;47.87;;
11835;SDS011;5977;51.972;7.640;2023-12-29T03:31:38;146.70;;;47.57;;
11835;SDS011;5977;51.972;7.640;2023-12-29T03:34:08;146.60;;;47.67;;
11835;SDS011;5977;51.972;7.640;2023-12-29T03:36:36;146.57;;;47.57;;
11835;SDS011;5977;51.972;7.640;2023-12-29T03:39:04;146.40;;;47.57;;
11835;SDS011;5977;51.972;7.640;2023-12-29T03:41:32;147.27;;;47.90;;
11835;SDS011;5977;51.972;7.640;2023-12-29T03:44:00;146.30;;;47.50;;
11835;SDS011;5977;51.972;7.640;2023-12-29T03:46:29;146.53;;;47.60;;
11835;SDS011;5977;51.972;7.640;2023-12-29T03:48:58;147.17;;;47.83;;
11835;SDS011;5977;51.972;7.640;2023-12-29T03:51:28;147.13;;;47.80;;
11835;SDS011;5977;51.972;7.640;2023-12-29T03:53:56;147.03;;;47.87;;
11835;SDS011;5977;51.972;7.640;2023-12-29T03:56:25;147.27;;;47.90;;
11835;SDS011;5977;51.972;7.640;2023-12-29T03:58:53;146.73;;;47.60;;
11835;SDS011;5977;51.972;7.640;2023-12-29T04:01:21;146.87;;;47.80;;
11835;SDS011;5977;51.972;7.640;2023-12-29T04:03:50;147.40;;;47.90;;
11835;SDS011;5977;51.972;7.640;2023-12-29T04:06:18;147.23;;;47.73;;
11835;SDS011;5977;51.972;7.640;2023-12-29T04:08:47;147.40;;;47.97;;
11835;SDS011;5977;51.972;7.640;2023-12-29T04:11:15;147.27;;;47.87;;
11835;SDS011;5977;51.972;7.640;2023-12-29T04:13:43;146.67;;;47.67;;
11835;SDS011;5977;51.972;7.640;2023-12-29T04:16:11;146.83;;;47.60;;
11835;SDS011;5977;51.972;7.640;2023-12-29T04:18:38;147.40;;;47.83;;
11835;SDS011;5977;51.972;7.640;2023-12-29T04:21:06;147.20;;;47.87;;
11835;SDS011;5977;51.972;7.640;2023-12-29T04:23:36;147.23;;;48.00;;
11835;SDS011;5977;51.972;7.640;2023-12-29T04:26:06;146.97;;;47.83;;
11835;SDS011;5977;51.972;7.640;2023-12-29T04:28:33;147.60;;;48.13;;
11835;SDS011;5977;51.972;7.640;2023-12-29T04:31:01;148.17;;;48.30;;
11835;SDS011;5977;51.972;7.640;2023-12-29T04:33:30;146.80;;;47.73;;
11835;SDS011;5977;51.972;7.640;2023-12-29T04:35:58;147.70;;;48.20;;
11835;SDS011;5977;51.972;7.640;2023-12-29T04:38:26;147.33;;;47.93;;
11835;SDS011;5977;51.972;7.640;2023-12-29T04:40:54;146.87;;;47.73;;
11835;SDS011;5977;51.972;7.640;2023-12-29T04:43:23;147.63;;;48.20;;
11835;SDS011;5977;51.972;7.640;2023-12-29T04:45:51;148.10;;;48.33;;
11835;SDS011;5977;51.972;7.640;2023-12-29T04:48:19;146.83;;;47.67;;
11835;SDS011;5977;51.972;7.640;2023-12-29T04:50:47;147.60;;;48.13;;
11835;SDS011;5977;51.972;7.640;2023-12-29T04:53:14;147.90;;;48.23;;
11835;SDS011;5977;51.972;7.640;2023-12-29T04:55:43;147.03;;;47.90;;
11835;SDS011;5977;51.972;7.640;2023-12-29T04:58:10;147.43;;;48.00;;
11835;SDS011;5977;51.972;7.640;2023-12-29T05:00:40;148.10;;;48.30;;
11835;SDS011;5977;51.972;7.640;2023-12-29T05:03:08;147.33;;;47.93;;
11835;SDS011;5977;51.972;7.640;2023-12-29T05:05:36;147.77;;;48.07;;
11835;SDS011;5977;51.972;7.640;2023-12-29T05:08:04;147.30;;;47.80;;
11835;SDS011;5977;51.972;7.640;2023-12-29T05:10:32;147.70;;;48.07;;
11835;SDS011;5977;51.972;7.640;2023-12-29T05:13:01;148.17;;;48.30;;
11835;SDS011;5977;51.972;7.640;2023-12-29T05:15:29;147.77;;;48.17;;
11835;SDS011;5977;51.972;7.640;2023-12-29T05:17:58;147.23;;;47.80;;
11835;SDS011;5977;51.972;7.640;2023-12-29T05:20:26;147.63;;;47.97;;
11835;SDS011;5977;51.972;7.640;2023-12-29T05:22:54;147.23;;;47.83;;
11835;SDS011;5977;51.972;7.640;2023-12-29T05:25:22;148.23;;;48.23;;
11835;SDS011;5977;51.972;7.640;2023-12-29T05:27:50;147.97;;;48.20;;
11835;SDS011;5977;51.972;7.640;2023-12-29T05:30:18;147.17;;;47.83;;
11835;SDS011;5977;51.972;7.640;2023-12-29T05:32:46;147.80;;;48.03;;
11835;SDS011;5977;51.972;7.640;2023-12-29T05:35:15;147.50;;;48.00;;
11835;SDS011;5977;51.972;7.640;2023-12-29T05:37:43;147.93;;;48.20;;
11835;SDS011;5977;51.972;7.640;2023-12-29T05:40:11;147.73;;;48.13;;
11835;SDS011;5977;51.972;7.640;2023-12-29T05:42:40;147.77;;;48.10;;
11835;SDS011;5977;51.972;7.640;2023-12-29T05:45:15;148.23;;;48.40;;
11835;SDS011;5977;51.972;7.640;2023-12-29T05:47:46;148.33;;;48.13;;
11835;SDS011;5977;51.972;7.640;2023-12-29T05:50:16;148.20;;;48.13;;
11835;SDS011;5977;51.972;7.640;2023-12-29T05:52:43;147.67;;;47.93;;
11835;SDS011;5977;51.972;7.640;2023-12-29T05:55:15;148.43;;;48.30;;
11835;SDS011;5977;51.972;7.640;2023-12-29T05:57:43;148.33;;;48.33;;
11835;SDS011;5977;51.972;7.640;2023-12-29T06:00:12;147.97;;;48.17;;
11835;SDS011;5977;51.972;7.640;2023-12-29T06:02:41;148.50;;;48.30;;
11835;SDS011;5977;51.972;7.640;2023-12-29T06:05:10;148.20;;;48.30;;
11835;SDS011;5977;51.972;7.640;2023-12-29T06:07:39;147.93;;;48.23;;
11835;SDS011;5977;51.972;7.640;2023-12-29T06:10:08;148.60;;;48.47;;
11835;SDS011;5977;51.972;7.640;2023-12-29T06:12:36;148.40;;;48.27;;
11835;SDS011;5977;51.972;7.640;2023-12-29T06:15:04;148.80;;;48.50;;
11835;SDS011;5977;51.972;7.640;2023-12-29T06:17:33;148.50;;;48.27;;
11835;SDS011;5977;51.972;7.640;2023-12-29T06:20:02;148.53;;;48.40;;
11835;SDS011;5977;51.972;7.640;2023-12-29T06:22:32;148.13;;;48.17;;
11835;SDS011;5977;51.972;7.640;2023-12-29T06:25:01;147.53;;;47.80;;
11835;SDS011;5977;51.972;7.640;2023-12-29T06:27:29;147.60;;;47.97;;
11835;SDS011;5977;51.972;7.640;2023-12-29T06:29:58;148.47;;;48.40;;
11835;SDS011;5977;51.972;7.640;2023-12-29T06:32:26;148.33;;;48.33;;
11835;SDS011;5977;51.972;7.640;2023-12-29T06:34:54;147.97;;;48.20;;
11835;SDS011;5977;51.972;7.640;2023-12-29T06:37:22;148.17;;;48.27;;
11835;SDS011;5977;51.972;7.640;2023-12-29T06:39:50;148.37;;;48.47;;
11835;SDS011;5977;51.972;7.640;2023-12-29T06:42:19;148.47;;;48.37;;
11835;SDS011;5977;51.972;7.640;2023-12-29T06:44:47;148.53;;;48.47;;
11835;SDS011;5977;51.972;7.640;2023-12-29T06:47:15;148.83;;;48.67;;
11835;SDS011;5977;51.972;7.640;2023-12-29T06:49:43;148.33;;;48.23;;
11835;SDS011;5977;51.972;7.640;2023-12-29T06:52:11;148.63;;;48.33;;
11835;SDS011;5977;51.972;7.640;2023-12-29T06:54:39;148.70;;;48.43;;
11835;SDS011;5977;51.972;7.640;2023-12-29T06:57:07;148.47;;;48.30;;
11835;SDS011;5977;51.972;7.640;2023-12-29T06:59:36;148.53;;;48.47;;
11835;SDS011;5977;51.972;7.640;2023-12-29T07:02:04;149.23;;;48.57;;
11835;SDS011;5977;51.972;7.640;2023-12-29T07:04:32;148.80;;;48.47;;
11835;SDS011;5977;51.972;7.640;2023-12-29T07:07:00;149.57;;;48.90;;
11835;SDS011;5977;51.972;7.640;2023-12-29T07:09:28;148.43;;;48.27;;
11835;SDS011;5977;51.972;7.640;2023-12-29T07:11:56;148.27;;;48.23;;
11835;SDS011;5977;51.972;7.640;2023-12-29T07:14:24;147.67;;;47.70;;
11835;SDS011;5977;51.972;7.640;2023-12-29T07:16:53;148.73;;;48.33;;
11835;SDS011;5977;51.972;7.640;2023-12-29T07:19:21;148.43;;;48.37;;
11835;SDS011;5977;51.972;7.640;2023-12-29T07:21:48;149.23;;;48.63;;
11835;SDS011;5977;51.972;7.640;2023-12-29T07:24:16;148.43;;;48.37;;
11835;SDS011;5977;51.972;7.640;2023-12-29T07:26:44;148.53;;;48.33;;
11835;SDS011;5977;51.972;7.640;2023-12-29T07:29:12;148.03;;;48.10;;
11835;SDS011;5977;51.972;7.640;2023-12-29T07:31:40;147.87;;;47.90;;
11835;SDS011;5977;51.972;7.640;2023-12-29T07:34:09;148.17;;;48.10;;
11835;SDS011;5977;51.972;7.640;2023-12-29T07:36:38;147.47;;;47.90;;
11835;SDS011;5977;51.972;7.640;2023-12-29T07:39:06;148.37;;;48.10;;
11835;SDS011;5977;51.972;7.640;2023-12-29T07:41:38;148.40;;;48.17;;
11835;SDS011;5977;51.972;7.640;2023-12-29T07:44:07;148.17;;;48.17;;
11835;SDS011;5977;51.972;7.640;2023-12-29T07:46:35;148.67;;;48.40;;
11835;SDS011;5977;51.972;7.640;2023-12-29T07:49:02;148.40;;;48.27;;
11835;SDS011;5977;51.972;7.640;2023-12-29T07:51:32;148.27;;;48.23;;
11835;SDS011;5977;51.972;7.640;2023-12-29T07:54:00;148.03;;;48.20;;
11835;SDS011;5977;51.972;7.640;2023-12-29T07:56:28;148.03;;;48.20;;
11835;SDS011;5977;51.972;7.640;2023-12-29T07:58:56;148.07;;;48.07;;
11835;SDS011;5977;51.972;7.640;2023-12-29T08:01:24;148.30;;;48.20;;
11835;SDS011;5977;51.972;7.640;2023-12-29T08:03:53;148.57;;;48.47;;
11835;SDS011;5977;51.972;7.640;2023-12-29T08:06:21;149.13;;;48.60;;
11835;SDS011;5977;51.972;7.640;2023-12-29T08:08:50;148.27;;;48.27;;
11835;SDS011;5977;51.972;7.640;2023-12-29T08:11:18;148.40;;;48.27;;
11835;SDS011;5977;51.972;7.640;2023-12-29T08:13:47;147.67;;;47.97;;
11835;SDS011;5977;51.972;7.640;2023-12-29T08:16:15;148.53;;;48.43;;
11835;SDS011;5977;51.972;7.640;2023-12-29T08:18:45;148.00;;;48.17;;
11835;SDS011;5977;51.972;7.640;2023-12-29T08:21:17;147.97;;;48.13;;
11835;SDS011;5977;51.972;7.640;2023-12-29T08:23:45;147.53;;;47.97;;
11835;SDS011;5977;51.972;7.640;2023-12-29T08:26:15;148.07;;;48.17;;
11835;SDS011;5977;51.972;7.640;2023-12-29T08:28:43;147.23;;;47.87;;
11835;SDS011;5977;51.972;7.640;2023-12-29T08:31:11;148.27;;;48.17;;
11835;SDS011;5977;51.972;7.640;2023-12-29T08:33:40;147.40;;;47.73;;
11835;SDS011;5977;51.972;7.640;2023-12-29T08:36:08;147.33;;;47.80;;
11835;SDS011;5977;51.972;7.640;2023-12-29T08:38:36;146.70;;;47.80;;
11835;SDS011;5977;51.972;7.640;2023-12-29T08:41:04;146.03;;;47.30;;
11835;SDS011;5977;51.972;7.640;2023-12-29T08:43:35;145.63;;;47.27;;
11835;SDS011;5977;51.972;7.640;2023-12-29T08:46:03;146.03;;;47.37;;
11835;SDS011;5977;51.972;7.640;2023-12-29T08:48:31;144.73;;;46.73;;
11835;SDS011;5977;51.972;7.640;2023-12-29T08:51:00;145.47;;;47.10;;
11835;SDS011;5977;51.972;7.640;2023-12-29T08:53:28;145.20;;;46.97;;
11835;SDS011;5977;51.972;7.640;2023-12-29T08:55:59;145.27;;;47.00;;
11835;SDS011;5977;51.972;7.640;2023-12-29T08:58:27;145.33;;;47.00;;
11835;SDS011;5977;51.972;7.640;2023-12-29T09:00:57;144.87;;;46.83;;
11835;SDS011;5977;51.972;7.640;2023-12-29T09:03:25;145.47;;;47.23;;
11835;SDS011;5977;51.972;7.640;2023-12-29T09:05:55;146.60;;;47.63;;
11835;SDS011;5977;51.972;7.640;2023-12-29T09:08:25;147.60;;;48.03;;
11835;SDS011;5977;51.972;7.640;2023-12-29T09:10:53;149.03;;;48.63;;
11835;SDS011;5977;51.972;7.640;2023-12-29T09:13:21;150.27;;;49.10;;
11835;SDS011;5977;51.972;7.640;2023-12-29T09:15:51;150.97;;;49.43;;
11835;SDS011;5977;51.972;7.640;2023-12-29T09:18:20;151.07;;;49.30;;
11835;SDS011;5977;51.972;7.640;2023-12-29T09:20:48;151.00;;;49.30;;
11835;SDS011;5977;51.972;7.640;2023-12-29T09:23:16;151.67;;;49.80;;
11835;SDS011;5977;51.972;7.640;2023-12-29T09:25:44;151.43;;;49.57;;
11835;SDS011;5977;51.972;7.640;2023-12-29T09:28:14;152.17;;;49.83;;
11835;SDS011;5977;51.972;7.640;2023-12-29T09:30:42;152.10;;;49.83;;
11835;SDS011;5977;51.972;7.640;2023-12-29T09:33:10;152.90;;;49.97;;
11835;SDS011;5977;51.972;7.640;2023-12-29T09:35:41;152.80;;;50.00;;
11835;SDS011;5977;51.972;7.640;2023-12-29T09:38:09;153.20;;;50.33;;
11835;SDS011;5977;51.972;7.640;2023-12-29T09:40:37;152.53;;;49.80;;
11835;SDS011;5977;51.972;7.640;2023-12-29T09:43:05;152.37;;;50.00;;
11835;SDS011;5977;51.972;7.640;2023-12-29T09:45:33;152.40;;;49.90;;
11835;SDS011;5977;51.972;7.640;2023-12-29T09:48:07;152.63;;;49.93;;
11835;SDS011;5977;51.972;7.640;2023-12-29T09:50:36;153.03;;;50.23;;
11835;SDS011;5977;51.972;7.640;2023-12-29T09:53:06;152.77;;;49.93;;
11835;SDS011;5977;51.972;7.640;2023-12-29T09:55:38;153.47;;;50.23;;
11835;SDS011;5977;51.972;7.640;2023-12-29T09:58:08;153.53;;;50.37;;
11835;SDS011;5977;51.972;7.640;2023-12-29T10:00:40;153.10;;;50.10;;
11835;SDS011;5977;51.972;7.640;2023-12-29T10:03:14;153.00;;;50.13;;
11835;SDS011;5977;51.972;7.640;2023-12-29T10:05:43;153.70;;;50.50;;
11835;SDS011;5977;51.972;7.640;2023-12-29T10:08:15;153.17;;;50.00;;
11835;SDS011;5977;51.972;7.640;2023-12-29T10:10:46;153.70;;;50.17;;
11835;SDS011;5977;51.972;7.640;2023-12-29T10:13:19;152.70;;;50.10;;
11835;SDS011;5977;51.972;7.640;2023-12-29T10:15:49;154.40;;;50.77;;
11835;SDS011;5977;51.972;7.640;2023-12-29T10:18:26;153.83;;;50.43;;
11835;SDS011;5977;51.972;7.640;2023-12-29T10:21:01;153.57;;;50.37;;
11835;SDS011;5977;51.972;7.640;2023-12-29T10:23:38;153.73;;;50.20;;
11835;SDS011;5977;51.972;7.640;2023-12-29T10:26:10;154.37;;;50.67;;
11835;SDS011;5977;51.972;7.640;2023-12-29T10:28:39;153.53;;;50.17;;
11835;SDS011;5977;51.972;7.640;2023-12-29T10:31:06;153.77;;;50.37;;
11835;SDS011;5977;51.972;7.640;2023-12-29T10:33:41;153.27;;;50.17;;
11835;SDS011;5977;51.972;7.640;2023-12-29T10:36:09;154.23;;;50.53;;
11835;SDS011;5977;51.972;7.640;2023-12-29T10:38:39;154.87;;;50.77;;
11835;SDS011;5977;51.972;7.640;2023-12-29T10:41:11;153.77;;;50.17;;
11835;SDS011;5977;51.972;7.640;2023-12-29T10:43:40;153.93;;;50.40;;
11835;SDS011;5977;51.972;7.640;2023-12-29T10:46:09;153.20;;;50.13;;
11835;SDS011;5977;51.972;7.640;2023-12-29T10:48:38;154.07;;;50.57;;
11835;SDS011;5977;51.972;7.640;2023-12-29T10:51:07;153.20;;;50.20;;
11835;SDS011;5977;51.972;7.640;2023-12-29T10:53:36;154.07;;;50.37;;
11835;SDS011;5977;51.972;7.640;2023-12-29T10:56:16;153.87;;;50.10;;
11835;SDS011;5977;51.972;7.640;2023-12-29T10:58:56;153.20;;;49.77;;
11835;SDS011;5977;51.972;7.640;2023-12-29T11:01:31;153.87;;;50.27;;
11835;SDS011;5977;51.972;7.640;2023-12-29T11:04:02;152.83;;;49.80;;
11835;SDS011;5977;51.972;7.640;2023-12-29T11:06:39;153.90;;;50.37;;
11835;SDS011;5977;51.972;7.640;2023-12-29T11:09:08;152.80;;;49.93;;
11835;SDS011;5977;51.972;7.640;2023-12-29T11:11:39;153.43;;;50.03;;
11835;SDS011;5977;51.972;7.640;2023-12-29T11:14:07;152.60;;;49.67;;
11835;SDS011;5977;51.972;7.640;2023-12-29T11:16:38;153.20;;;50.13;;
11835;SDS011;5977;51.972;7.640;2023-12-29T11:19:08;152.77;;;49.83;;
11835;SDS011;5977;51.972;7.640;2023-12-29T11:21:40;150.80;;;48.73;;
11835;SDS011;5977;51.972;7.640;2023-12-29T11:24:09;150.13;;;48.37;;
11835;SDS011;5977;51.972;7.640;2023-12-29T11:26:43;149.13;;;48.23;;
11835;SDS011;5977;51.972;7.640;2023-12-29T11:29:12;149.30;;;48.20;;
11835;SDS011;5977;51.972;7.640;2023-12-29T11:31:39;148.17;;;47.63;;
11835;SDS011;5977;51.972;7.640;2023-12-29T11:34:10;148.27;;;47.77;;
11835;SDS011;5977;51.972;7.640;2023-12-29T11:36:45;147.03;;;47.30;;
11835;SDS011;5977;51.972;7.640;2023-12-29T11:39:16;146.93;;;47.33;;
11835;SDS011;5977;51.972;7.640;2023-12-29T11:41:49;147.50;;;47.60;;
11835;SDS011;5977;51.972;7.640;2023-12-29T11:44:24;147.47;;;47.50;;
11835;SDS011;5977;51.972;7.640;2023-12-29T11:46:53;147.67;;;47.63;;
11835;SDS011;5977;51.972;7.640;2023-12-29T11:49:21;146.93;;;47.33;;
11835;SDS011;5977;51.972;7.640;2023-12-29T11:51:49;146.83;;;47.27;;
11835;SDS011;5977;51.972;7.640;2023-12-29T11:54:24;146.73;;;47.20;;
11835;SDS011;5977;51.972;7.640;2023-12-29T11:56:55;146.67;;;47.20;;
11835;SDS011;5977;51.972;7.640;2023-12-29T11:59:23;146.80;;;47.23;;
11835;SDS011;5977;51.972;7.640;2023-12-29T12:01:54;146.67;;;47.33;;
11835;SDS011;5977;51.972;7.640;2023-12-29T12:04:38;146.13;;;47.10;;
11835;SDS011;5977;51.972;7.640;2023-12-29T12:07:12;145.83;;;47.10;;
11835;SDS011;5977;51.972;7.640;2023-12-29T12:09:43;144.67;;;46.57;;
11835;SDS011;5977;51.972;7.640;2023-12-29T12:12:37;145.10;;;46.83;;
11835;SDS011;5977;51.972;7.640;2023-12-29T12:15:06;145.17;;;46.80;;
11835;SDS011;5977;51.972;7.640;2023-12-29T12:18:01;144.80;;;46.80;;
11835;SDS011;5977;51.972;7.640;2023-12-29T12:20:32;144.87;;;46.70;;
11835;SDS011;5977;51.972;7.640;2023-12-29T12:23:01;144.10;;;46.57;;
11835;SDS011;5977;51.972;7.640;2023-12-29T12:25:31;145.17;;;47.00;;
11835;SDS011;5977;51.972;7.640;2023-12-29T12:28:02;144.63;;;46.67;;
11835;SDS011;5977;51.972;7.640;2023-12-29T12:30:33;144.60;;;46.70;;
11835;SDS011;5977;51.972;7.640;2023-12-29T12:33:02;144.63;;;46.73;;
11835;SDS011;5977;51.972;7.640;2023-12-29T12:35:32;143.93;;;46.57;;
11835;SDS011;5977;51.972;7.640;2023-12-29T12:38:06;144.43;;;46.67;;
11835;SDS011;5977;51.972;7.640;2023-12-29T12:40:35;144.70;;;46.80;;
11835;SDS011;5977;51.972;7.640;2023-12-29T12:43:05;144.07;;;46.57;;
11835;SDS011;5977;51.972;7.640;2023-12-29T12:45:35;144.20;;;46.67;;
11835;SDS011;5977;51.972;7.640;2023-12-29T12:48:12;144.47;;;46.63;;
11835;SDS011;5977;51.972;7.640;2023-12-29T12:50:42;144.63;;;46.77;;
11835;SDS011;5977;51.972;7.640;2023-12-29T12:53:11;144.97;;;47.03;;
11835;SDS011;5977;51.972;7.640;2023-12-29T12:55:46;145.07;;;47.00;;
11835;SDS011;5977;51.972;7.640;2023-12-29T12:58:16;145.50;;;47.17;;
11835;SDS011;5977;51.972;7.640;2023-12-29T13:00:44;144.93;;;47.00;;
11835;SDS011;5977;51.972;7.640;2023-12-29T13:03:17;145.07;;;47.00;;
11835;SDS011;5977;51.972;7.640;2023-12-29T13:05:45;145.50;;;47.30;;
11835;SDS011;5977;51.972;7.640;2023-12-29T13:08:14;145.90;;;47.33;;
11835;SDS011;5977;51.972;7.640;2023-12-29T13:10:59;145.67;;;47.30;;
11835;SDS011;5977;51.972;7.640;2023-12-29T13:13:36;145.50;;;47.17;;
11835;SDS011;5977;51.972;7.640;2023-12-29T13:16:04;145.07;;;47.10;;
11835;SDS011;5977;51.972;7.640;2023-12-29T13:18:33;145.40;;;47.10;;
11835;SDS011;5977;51.972;7.640;2023-12-29T13:21:02;145.97;;;47.33;;
11835;SDS011;5977;51.972;7.640;2023-12-29T13:23:31;145.27;;;47.07;;
11835;SDS011;5977;51.972;7.640;2023-12-29T13:26:02;145.33;;;47.20;;
11835;SDS011;5977;51.972;7.640;2023-12-29T13:28:32;144.43;;;46.67;;
11835;SDS011;5977;51.972;7.640;2023-12-29T13:31:05;145.03;;;47.07;;
11835;SDS011;5977;51.972;7.640;2023-12-29T13:33:41;145.10;;;47.07;;
11835;SDS011;5977;51.972;7.640;2023-12-29T13:36:17;144.57;;;46.83;;
11835;SDS011;5977;51.972;7.640;2023-12-29T13:38:50;144.53;;;46.83;;
11835;SDS011;5977;51.972;7.640;2023-12-29T13:41:22;144.73;;;46.93;;
11835;SDS011;5977;51.972;7.640;2023-12-29T13:43:52;145.43;;;47.20;;
11835;SDS011;5977;51.972;7.640;2023-12-29T13:46:24;144.33;;;46.80;;
11835;SDS011;5977;51.972;7.640;2023-12-29T13:48:52;145.10;;;47.00;;
11835;SDS011;5977;51.972;7.640;2023-12-29T13:51:22;145.40;;;47.10;;
11835;SDS011;5977;51.972;7.640;2023-12-29T13:53:57;145.37;;;47.23;;
11835;SDS011;5977;51.972;7.640;2023-12-29T13:56:26;145.10;;;47.07;;
11835;SDS011;5977;51.972;7.640;2023-12-29T13:58:54;145.00;;;47.07;;
11835;SDS011;5977;51.972;7.640;2023-12-29T14:01:22;145.67;;;47.30;;
11835;SDS011;5977;51.972;7.640;2023-12-29T14:03:55;144.80;;;46.90;;
11835;SDS011;5977;51.972;7.640;2023-12-29T14:06:27;144.73;;;47.00;;
11835;SDS011;5977;51.972;7.640;2023-12-29T14:08:57;144.70;;;46.87;;
11835;SDS011;5977;51.972;7.640;2023-12-29T14:11:25;144.87;;;47.03;;
11835;SDS011;5977;51.972;7.640;2023-12-29T14:13:53;144.47;;;46.87;;
11835;SDS011;5977;51.972;7.640;2023-12-29T14:16:21;144.27;;;46.73;;
11835;SDS011;5977;51.972;7.640;2023-12-29T14:18:53;144.90;;;47.00;;
11835;SDS011;5977;51.972;7.640;2023-12-29T14:21:23;144.60;;;46.87;;
11835;SDS011;5977;51.972;7.640;2023-12-29T14:23:57;144.50;;;46.70;;
11835;SDS011;5977;51.972;7.640;2023-12-29T14:26:27;144.00;;;46.60;;
11835;SDS011;5977;51.972;7.640;2023-12-29T14:29:02;144.43;;;46.83;;
11835;SDS011;5977;51.972;7.640;2023-12-29T14:31:31;144.03;;;46.60;;
11835;SDS011;5977;51.972;7.640;2023-12-29T14:34:02;144.17;;;46.77;;